createdAt,value
2023-05-04T00:00:19.397Z,101458.08
2023-05-04T00:00:41.244Z,101456.56
2023-05-04T00:01:03.034Z,101457.17
2023-05-04T00:01:24.816Z,101461.13
2023-05-04T00:01:46.603Z,101460.26
2023-05-04T00:02:08.995Z,101457.45
2023-05-04T00:02:30.829Z,101460.64
2023-05-04T00:02:52.814Z,101459.63
2023-05-04T00:03:14.771Z,101462.52
2023-05-04T00:03:37.560Z,101464.33
2023-05-04T00:03:59.809Z,101465.95
2023-05-04T00:04:22.063Z,101464.58
2023-05-04T00:04:43.858Z,101467.23
2023-05-04T00:05:06.420Z,101465.34
2023-05-04T00:05:28.352Z,101467.77
2023-05-04T00:05:50.114Z,101468.33
2023-05-04T00:06:11.895Z,101468.01
2023-05-04T00:06:33.682Z,101469.98
2023-05-04T00:06:55.878Z,101473.37
2023-05-04T00:07:17.972Z,101467.92
2023-05-04T00:07:39.716Z,101471.88
2023-05-04T00:08:01.544Z,101470.65
2023-05-04T00:08:23.318Z,101468.38
2023-05-04T00:08:45.111Z,101468.23
2023-05-04T00:09:07.300Z,101468.62
2023-05-04T00:09:29.094Z,101466.23
2023-05-04T00:09:51.175Z,101468.73
2023-05-04T00:10:13.068Z,101469.67
2023-05-04T00:10:34.774Z,101467.26
2023-05-04T00:10:56.832Z,101472.39
2023-05-04T00:11:18.734Z,101471.73
2023-05-04T00:11:40.917Z,101474.08
2023-05-04T00:12:02.698Z,101472.90
2023-05-04T00:12:24.492Z,101474.55
2023-05-04T00:12:46.564Z,101473.16
2023-05-04T00:13:08.479Z,101472.23
2023-05-04T00:13:30.244Z,101473.16
2023-05-04T00:13:52.032Z,101474.14
2023-05-04T00:14:13.926Z,101469.64
2023-05-04T00:14:37.413Z,101473.21
2023-05-04T00:14:59.226Z,101469.79
2023-05-04T00:15:21.112Z,101470.77
2023-05-04T00:15:42.897Z,101473.29
2023-05-04T00:16:05.007Z,101471.62
2023-05-04T00:16:26.892Z,101474.69
2023-05-04T00:16:48.823Z,101472.67
2023-05-04T00:17:11.365Z,101472.10
2023-05-04T00:17:33.491Z,101470.09
2023-05-04T00:17:55.592Z,101468.80
2023-05-04T00:18:17.534Z,101471.86
2023-05-04T00:18:39.538Z,101470.50
2023-05-04T00:19:01.413Z,101470.92
2023-05-04T00:19:23.199Z,101471.03
2023-05-04T00:19:46.218Z,101474.99
2023-05-04T00:20:08.450Z,101471.39
2023-05-04T00:20:30.285Z,101473.75
2023-05-04T00:20:52.072Z,101470.98
2023-05-04T00:21:13.853Z,101471.35
2023-05-04T00:21:35.855Z,101476.28
2023-05-04T00:21:57.635Z,101471.64
2023-05-04T00:22:19.465Z,101474.41
2023-05-04T00:22:41.713Z,101478.59
2023-05-04T00:23:03.495Z,101477.84
2023-05-04T00:23:25.283Z,101479.52
2023-05-04T00:23:47.064Z,101478.61
2023-05-04T00:24:08.849Z,101481.83
2023-05-04T00:24:30.631Z,101480.52
2023-05-04T00:24:52.417Z,101483.50
2023-05-04T00:25:14.209Z,101480.70
2023-05-04T00:25:36.187Z,101482.10
2023-05-04T00:26:00.839Z,101485.86
2023-05-04T00:26:22.640Z,101483.50
2023-05-04T00:26:45.753Z,101484.61
2023-05-04T00:27:07.628Z,101487.55
2023-05-04T00:27:29.407Z,101485.16
2023-05-04T00:27:51.292Z,101486.70
2023-05-04T00:28:13.407Z,101485.40
2023-05-04T00:28:35.173Z,101489.27
2023-05-04T00:28:56.959Z,101485.92
2023-05-04T00:29:18.741Z,101486.91
2023-05-04T00:29:40.595Z,101485.63
2023-05-04T00:30:03.118Z,101487.89
2023-05-04T00:30:25.197Z,101484.16
2023-05-04T00:30:48.129Z,101486.79
2023-05-04T00:31:09.866Z,101485.66
2023-05-04T00:31:32.351Z,101486.33
2023-05-04T00:31:54.104Z,101484.38
2023-05-04T00:32:16.083Z,101486.94
2023-05-04T00:32:37.884Z,101486.02
2023-05-04T00:33:00.957Z,101484.69
2023-05-04T00:33:22.970Z,101482.70
2023-05-04T00:33:45.174Z,101484.89
2023-05-04T00:34:07.561Z,101482.38
2023-05-04T00:34:29.552Z,101485.48
2023-05-04T00:34:51.336Z,101483.66
2023-05-04T00:35:13.149Z,101484.27
2023-05-04T00:35:35.009Z,101482.05
2023-05-04T00:35:56.794Z,101483.55
2023-05-04T00:36:18.508Z,101485.79
2023-05-04T00:36:42.818Z,101485.34
2023-05-04T00:37:04.839Z,101483.88
2023-05-04T00:37:26.602Z,101486.64
2023-05-04T00:37:48.380Z,101482.46
2023-05-04T00:38:10.159Z,101486.27
2023-05-04T00:38:31.946Z,101486.04
2023-05-04T00:38:54.445Z,101487.85
2023-05-04T00:39:16.566Z,101488.14
2023-05-04T00:39:39.042Z,101488.73
2023-05-04T00:40:01.097Z,101490.54
2023-05-04T00:40:22.911Z,101488.52
2023-05-04T00:40:45.307Z,101486.65
2023-05-04T00:41:07.019Z,101488.85
2023-05-04T00:41:28.776Z,101490.34
2023-05-04T00:41:50.667Z,101489.88
2023-05-04T00:42:12.553Z,101490.30
2023-05-04T00:42:34.334Z,101489.67
2023-05-04T00:42:56.220Z,101491.31
2023-05-04T00:43:18.519Z,101488.19
2023-05-04T00:43:40.302Z,101493.02
2023-05-04T00:44:04.327Z,101492.54
2023-05-04T00:44:26.529Z,101492.42
2023-05-04T00:44:48.315Z,101492.47
2023-05-04T00:45:10.311Z,101492.00
2023-05-04T00:45:32.207Z,101491.04
2023-05-04T00:45:54.130Z,101489.55
2023-05-04T00:46:15.965Z,101488.92
2023-05-04T00:46:38.093Z,101489.13
2023-05-04T00:47:00.041Z,101488.39
2023-05-04T00:47:22.182Z,101486.34
2023-05-04T00:47:44.038Z,101484.95
2023-05-04T00:48:06.583Z,101485.92
2023-05-04T00:48:28.368Z,101486.24
2023-05-04T00:48:51.728Z,101487.23
2023-05-04T00:49:13.524Z,101487.60
2023-05-04T00:49:35.506Z,101487.96
2023-05-04T00:49:57.391Z,101488.02
2023-05-04T00:50:19.467Z,101492.08
2023-05-04T00:50:41.366Z,101492.42
2023-05-04T00:51:03.072Z,101492.76
2023-05-04T00:51:24.832Z,101491.48
2023-05-04T00:51:47.742Z,101490.35
2023-05-04T00:52:10.591Z,101493.27
2023-05-04T00:52:32.334Z,101496.27
2023-05-04T00:52:55.754Z,101496.17
2023-05-04T00:53:17.644Z,101493.73
2023-05-04T00:53:39.452Z,101496.42
2023-05-04T00:54:01.221Z,101492.98
2023-05-04T00:54:23.010Z,101495.14
2023-05-04T00:54:44.986Z,101496.11
2023-05-04T00:55:07.284Z,101494.45
2023-05-04T00:55:29.371Z,101495.43
2023-05-04T00:55:51.071Z,101493.77
2023-05-04T00:56:12.940Z,101490.75
2023-05-04T00:56:41.186Z,101493.52
2023-05-04T00:57:03.666Z,101492.35
2023-05-04T00:57:25.518Z,101495.36
2023-05-04T00:57:48.569Z,101493.01
2023-05-04T00:58:10.456Z,101490.76
2023-05-04T00:58:32.750Z,101491.89
2023-05-04T00:58:54.839Z,101494.05
2023-05-04T00:59:16.744Z,101491.51
2023-05-04T00:59:39.641Z,101490.64
2023-05-04T01:00:01.698Z,101493.17
2023-05-04T01:00:23.515Z,101487.00
2023-05-04T01:00:45.316Z,101488.22
2023-05-04T01:01:07.414Z,101490.31
2023-05-04T01:01:29.475Z,101491.63
2023-05-04T01:01:51.469Z,101491.34
2023-05-04T01:02:13.768Z,101491.92
2023-05-04T01:02:35.828Z,101493.77
2023-05-04T01:02:58.623Z,101491.87
2023-05-04T01:03:20.672Z,101489.15
2023-05-04T01:03:42.692Z,101490.23
2023-05-04T01:04:04.755Z,101490.27
2023-05-04T01:04:26.795Z,101491.58
2023-05-04T01:04:48.615Z,101490.74
2023-05-04T01:05:10.798Z,101489.00
2023-05-04T01:05:35.552Z,101490.48
2023-05-04T01:06:15.849Z,101491.80
2023-05-04T01:06:58.710Z,101489.08
2023-05-04T01:07:40.024Z,101489.33
2023-05-04T01:08:04.464Z,101487.81
2023-05-04T01:08:31.774Z,101488.78
2023-05-04T01:09:06.449Z,101487.41
2023-05-04T01:09:31.945Z,101489.59
2023-05-04T01:09:54.516Z,101487.73
2023-05-04T01:10:18.078Z,101489.23
2023-05-04T01:10:47.707Z,101491.04
2023-05-04T01:11:13.698Z,101489.17
2023-05-04T01:11:41.695Z,101492.55
2023-05-04T01:12:07.595Z,101492.61
2023-05-04T01:12:39.601Z,101492.58
2023-05-04T01:13:03.248Z,101495.55
2023-05-04T01:13:25.303Z,101493.15
2023-05-04T01:13:47.086Z,101494.27
2023-05-04T01:14:08.869Z,101491.32
2023-05-04T01:14:30.612Z,101492.64
2023-05-04T01:14:54.176Z,101491.98
2023-05-04T01:15:17.048Z,101490.06
2023-05-04T01:15:39.179Z,101491.89
2023-05-04T01:16:00.942Z,101491.94
2023-05-04T01:16:22.701Z,101489.02
2023-05-04T01:16:44.557Z,101488.78
2023-05-04T01:17:07.575Z,101489.92
2023-05-04T01:17:29.460Z,101488.65
2023-05-04T01:17:51.339Z,101492.02
2023-05-04T01:18:13.480Z,101489.88
2023-05-04T01:18:35.269Z,101490.41
2023-05-04T01:18:56.977Z,101485.15
2023-05-04T01:19:18.863Z,101487.27
2023-05-04T01:19:40.875Z,101489.65
2023-05-04T01:20:04.270Z,101490.92
2023-05-04T01:20:26.236Z,101490.08
2023-05-04T01:20:47.947Z,101491.39
2023-05-04T01:21:10.144Z,101490.77
2023-05-04T01:21:31.932Z,101490.27
2023-05-04T01:21:53.714Z,101492.45
2023-05-04T01:22:16.414Z,101492.52
2023-05-04T01:22:38.531Z,101492.74
2023-05-04T01:23:00.373Z,101491.06
2023-05-04T01:23:22.788Z,101489.67
2023-05-04T01:23:45.338Z,101490.23
2023-05-04T01:24:07.059Z,101489.21
2023-05-04T01:24:28.761Z,101490.02
2023-05-04T01:24:50.859Z,101489.87
2023-05-04T01:25:12.836Z,101487.64
2023-05-04T01:25:36.359Z,101487.85
2023-05-04T01:26:14.102Z,101488.94
2023-05-04T01:26:39.971Z,101489.35
2023-05-04T01:27:05.457Z,101489.38
2023-05-04T01:27:28.764Z,101487.70
2023-05-04T01:27:52.500Z,101487.72
2023-05-04T01:28:18.476Z,101485.83
2023-05-04T01:28:46.611Z,101484.09
2023-05-04T01:29:28.729Z,101483.75
2023-05-04T01:30:03.642Z,101483.50
2023-05-04T01:30:40.328Z,101482.01
2023-05-04T01:31:03.002Z,101478.73
2023-05-04T01:31:24.830Z,101481.80
2023-05-04T01:31:46.809Z,101479.02
2023-05-04T01:32:08.786Z,101479.65
2023-05-04T01:32:30.809Z,101477.65
2023-05-04T01:32:53.203Z,101478.92
2023-05-04T01:33:14.958Z,101477.73
2023-05-04T01:33:36.886Z,101478.00
2023-05-04T01:34:00.268Z,101478.27
2023-05-04T01:34:22.049Z,101480.14
2023-05-04T01:34:44.047Z,101475.58
2023-05-04T01:35:06.542Z,101478.65
2023-05-04T01:35:28.531Z,101479.98
2023-05-04T01:35:51.848Z,101480.40
2023-05-04T01:36:13.633Z,101480.64
2023-05-04T01:36:36.746Z,101477.08
2023-05-04T01:36:58.533Z,101475.56
2023-05-04T01:37:20.312Z,101479.33
2023-05-04T01:37:42.101Z,101476.20
2023-05-04T01:38:03.950Z,101475.40
2023-05-04T01:38:25.773Z,101480.23
2023-05-04T01:38:48.656Z,101475.60
2023-05-04T01:39:10.469Z,101478.96
2023-05-04T01:39:32.155Z,101479.23
2023-05-04T01:39:57.206Z,101478.23
2023-05-04T01:40:18.988Z,101479.36
2023-05-04T01:40:40.778Z,101481.10
2023-05-04T01:41:02.508Z,101481.08
2023-05-04T01:41:24.351Z,101482.78
2023-05-04T01:41:46.119Z,101480.10
2023-05-04T01:42:10.777Z,101480.59
2023-05-04T01:42:32.558Z,101481.01
2023-05-04T01:42:54.443Z,101481.14
2023-05-04T01:43:16.228Z,101480.90
2023-05-04T01:43:37.967Z,101483.23
2023-05-04T01:43:59.795Z,101482.81
2023-05-04T01:44:21.682Z,101482.98
2023-05-04T01:44:43.464Z,101481.88
2023-05-04T01:45:05.694Z,101483.79
2023-05-04T01:45:27.552Z,101483.98
2023-05-04T01:45:49.365Z,101484.84
2023-05-04T01:46:11.270Z,101485.38
2023-05-04T01:46:33.741Z,101484.56
2023-05-04T01:46:55.619Z,101483.17
2023-05-04T01:47:17.490Z,101485.54
2023-05-04T01:47:39.282Z,101483.80
2023-05-04T01:48:01.148Z,101484.58
2023-05-04T01:48:22.896Z,101482.37
2023-05-04T01:48:44.732Z,101483.15
2023-05-04T01:49:07.333Z,101483.03
2023-05-04T01:49:29.117Z,101484.53
2023-05-04T01:49:50.909Z,101485.81
2023-05-04T01:50:12.695Z,101484.06
2023-05-04T01:50:34.470Z,101485.04
2023-05-04T01:50:57.407Z,101486.17
2023-05-04T01:51:19.517Z,101488.54
2023-05-04T01:51:41.363Z,101487.20
2023-05-04T01:52:03.765Z,101484.27
2023-05-04T01:52:25.753Z,101490.02
2023-05-04T01:52:47.538Z,101490.81
2023-05-04T01:53:09.319Z,101488.91
2023-05-04T01:53:31.102Z,101489.53
2023-05-04T01:53:52.887Z,101492.79
2023-05-04T01:54:14.670Z,101491.64
2023-05-04T01:54:36.654Z,101494.03
2023-05-04T01:54:59.002Z,101495.53
2023-05-04T01:55:20.744Z,101493.73
2023-05-04T01:55:42.443Z,101494.32
2023-05-04T01:56:04.337Z,101498.42
2023-05-04T01:56:26.194Z,101496.23
2023-05-04T01:56:48.386Z,101495.44
2023-05-04T01:57:10.275Z,101494.30
2023-05-04T01:57:32.067Z,101494.83
2023-05-04T01:57:53.786Z,101496.85
2023-05-04T01:58:15.627Z,101495.02
2023-05-04T01:58:37.375Z,101497.21
2023-05-04T01:58:59.198Z,101495.14
2023-05-04T01:59:20.983Z,101495.77
2023-05-04T01:59:42.765Z,101498.63
2023-05-04T02:00:05.063Z,101495.37
2023-05-04T02:00:37.277Z,101495.83
2023-05-04T02:01:02.332Z,101492.66
2023-05-04T02:01:24.132Z,101493.62
2023-05-04T02:01:46.048Z,101492.79
2023-05-04T02:02:08.032Z,101494.23
2023-05-04T02:02:29.909Z,101492.85
2023-05-04T02:02:51.684Z,101493.44
2023-05-04T02:03:14.111Z,101493.65
2023-05-04T02:03:36.259Z,101492.27
2023-05-04T02:03:58.436Z,101495.32
2023-05-04T02:04:20.553Z,101493.59
2023-05-04T02:04:42.326Z,101495.94
2023-05-04T02:05:04.417Z,101491.73
2023-05-04T02:05:26.303Z,101493.05
2023-05-04T02:05:48.087Z,101494.33
2023-05-04T02:06:11.305Z,101497.55
2023-05-04T02:06:33.207Z,101494.39
2023-05-04T02:06:54.946Z,101494.27
2023-05-04T02:07:17.274Z,101495.89
2023-05-04T02:07:39.052Z,101495.77
2023-05-04T02:08:02.272Z,101495.58
2023-05-04T02:08:24.056Z,101498.33
2023-05-04T02:08:46.360Z,101497.04
2023-05-04T02:09:08.141Z,101495.33
2023-05-04T02:09:30.028Z,101498.05
2023-05-04T02:09:52.333Z,101499.69
2023-05-04T02:10:14.068Z,101494.99
2023-05-04T02:10:36.614Z,101497.11
2023-05-04T02:10:58.395Z,101497.16
2023-05-04T02:11:20.227Z,101497.23
2023-05-04T02:11:42.058Z,101495.73
2023-05-04T02:12:04.454Z,101495.38
2023-05-04T02:12:26.246Z,101494.77
2023-05-04T02:12:48.083Z,101497.45
2023-05-04T02:13:09.962Z,101495.65
2023-05-04T02:13:31.906Z,101496.82
2023-05-04T02:13:53.688Z,101496.42
2023-05-04T02:14:15.482Z,101498.23
2023-05-04T02:14:37.260Z,101496.45
2023-05-04T02:14:59.350Z,101496.13
2023-05-04T02:15:21.062Z,101496.71
2023-05-04T02:15:42.836Z,101498.32
2023-05-04T02:16:06.207Z,101495.91
2023-05-04T02:16:28.164Z,101494.97
2023-05-04T02:16:50.051Z,101497.28
2023-05-04T02:17:11.767Z,101495.71
2023-05-04T02:17:33.693Z,101496.99
2023-05-04T02:17:55.585Z,101498.59
2023-05-04T02:18:17.461Z,101495.60
2023-05-04T02:18:39.340Z,101499.36
2023-05-04T02:19:01.437Z,101498.30
2023-05-04T02:19:23.158Z,101496.39
2023-05-04T02:19:44.907Z,101499.41
2023-05-04T02:20:09.873Z,101500.13
2023-05-04T02:20:31.742Z,101498.40
2023-05-04T02:20:53.629Z,101499.48
2023-05-04T02:21:15.641Z,101499.65
2023-05-04T02:21:39.659Z,101498.45
2023-05-04T02:22:01.439Z,101499.54
2023-05-04T02:22:24.269Z,101497.83
2023-05-04T02:22:47.967Z,101499.78
2023-05-04T02:23:09.691Z,101501.79
2023-05-04T02:23:31.436Z,101497.85
2023-05-04T02:23:53.629Z,101500.56
2023-05-04T02:24:15.414Z,101498.99
2023-05-04T02:24:37.381Z,101497.09
2023-05-04T02:24:59.195Z,101499.40
2023-05-04T02:25:21.075Z,101495.91
2023-05-04T02:25:42.789Z,101497.75
2023-05-04T02:26:04.545Z,101496.87
2023-05-04T02:26:26.337Z,101493.39
2023-05-04T02:26:48.228Z,101495.14
2023-05-04T02:27:09.988Z,101496.40
2023-05-04T02:27:31.781Z,101491.84
2023-05-04T02:27:53.516Z,101490.14
2023-05-04T02:28:15.458Z,101492.60
2023-05-04T02:28:37.443Z,101494.05
2023-05-04T02:28:59.224Z,101492.84
2023-05-04T02:29:21.120Z,101494.09
2023-05-04T02:29:42.844Z,101493.79
2023-05-04T02:30:05.947Z,101493.76
2023-05-04T02:30:28.001Z,101493.29
2023-05-04T02:30:49.717Z,101491.86
2023-05-04T02:31:11.605Z,101494.00
2023-05-04T02:31:34.132Z,101492.83
2023-05-04T02:31:56.334Z,101494.44
2023-05-04T02:32:18.365Z,101495.16
2023-05-04T02:32:40.081Z,101497.09
2023-05-04T02:33:01.861Z,101494.14
2023-05-04T02:33:23.816Z,101496.95
2023-05-04T02:33:45.597Z,101495.11
2023-05-04T02:34:07.321Z,101495.77
2023-05-04T02:34:29.673Z,101494.59
2023-05-04T02:34:51.773Z,101493.94
2023-05-04T02:35:13.763Z,101491.66
2023-05-04T02:35:35.747Z,101494.70
2023-05-04T02:35:57.530Z,101493.65
2023-05-04T02:36:19.320Z,101494.00
2023-05-04T02:36:41.097Z,101493.19
2023-05-04T02:37:06.549Z,101491.73
2023-05-04T02:37:29.577Z,101493.70
2023-05-04T02:37:51.671Z,101492.80
2023-05-04T02:38:13.563Z,101491.43
2023-05-04T02:38:35.343Z,101491.02
2023-05-04T02:39:00.618Z,101491.88
2023-05-04T02:39:22.590Z,101496.28
2023-05-04T02:39:44.375Z,101491.15
2023-05-04T02:40:06.811Z,101490.65
2023-05-04T02:40:28.822Z,101486.98
2023-05-04T02:40:51.977Z,101486.80
2023-05-04T02:41:13.726Z,101488.60
2023-05-04T02:41:35.546Z,101490.44
2023-05-04T02:41:57.330Z,101486.94
2023-05-04T02:42:19.058Z,101490.16
2023-05-04T02:42:40.804Z,101488.46
2023-05-04T02:43:02.582Z,101487.80
2023-05-04T02:43:24.468Z,101491.16
2023-05-04T02:43:46.261Z,101488.23
2023-05-04T02:44:08.142Z,101486.45
2023-05-04T02:44:29.921Z,101485.67
2023-05-04T02:44:51.709Z,101489.36
2023-05-04T02:45:13.493Z,101485.54
2023-05-04T02:45:35.722Z,101487.52
2023-05-04T02:45:57.631Z,101488.91
2023-05-04T02:46:20.391Z,101488.46
2023-05-04T02:46:42.379Z,101490.58
2023-05-04T02:47:05.994Z,101487.84
2023-05-04T02:47:27.790Z,101485.17
2023-05-04T02:47:49.541Z,101487.45
2023-05-04T02:48:11.562Z,101489.12
2023-05-04T02:48:33.550Z,101489.23
2023-05-04T02:48:55.253Z,101487.66
2023-05-04T02:49:18.342Z,101485.91
2023-05-04T02:49:40.125Z,101485.73
2023-05-04T02:50:02.008Z,101487.73
2023-05-04T02:50:25.079Z,101486.30
2023-05-04T02:50:46.914Z,101484.01
2023-05-04T02:51:08.696Z,101485.58
2023-05-04T02:51:30.487Z,101484.02
2023-05-04T02:51:52.264Z,101483.67
2023-05-04T02:52:14.054Z,101481.77
2023-05-04T02:52:35.863Z,101483.52
2023-05-04T02:52:57.620Z,101482.27
2023-05-04T02:53:19.612Z,101481.43
2023-05-04T02:53:41.394Z,101481.27
2023-05-04T02:54:03.382Z,101478.92
2023-05-04T02:54:25.170Z,101480.34
2023-05-04T02:54:46.951Z,101480.90
2023-05-04T02:55:09.467Z,101480.20
2023-05-04T02:55:31.246Z,101478.59
2023-05-04T02:55:53.026Z,101480.71
2023-05-04T02:56:15.014Z,101481.41
2023-05-04T02:56:37.099Z,101482.60
2023-05-04T02:56:58.888Z,101482.23
2023-05-04T02:57:20.727Z,101481.70
2023-05-04T02:57:42.556Z,101482.96
2023-05-04T02:58:04.457Z,101482.98
2023-05-04T02:58:26.412Z,101481.55
2023-05-04T02:58:48.226Z,101484.68
2023-05-04T02:59:09.999Z,101483.73
2023-05-04T02:59:31.989Z,101483.17
2023-05-04T02:59:53.775Z,101484.38
2023-05-04T03:00:15.865Z,101482.05
2023-05-04T03:00:37.650Z,101485.36
2023-05-04T03:00:59.531Z,101482.52
2023-05-04T03:01:21.641Z,101480.83
2023-05-04T03:01:43.627Z,101481.06
2023-05-04T03:02:05.604Z,101478.12
2023-05-04T03:02:27.399Z,101480.39
2023-05-04T03:02:49.165Z,101474.40
2023-05-04T03:03:11.781Z,101473.51
2023-05-04T03:03:33.563Z,101475.25
2023-05-04T03:03:55.368Z,101476.14
2023-05-04T03:04:17.222Z,101478.02
2023-05-04T03:04:39.199Z,101477.45
2023-05-04T03:05:01.518Z,101477.27
2023-05-04T03:05:23.283Z,101474.96
2023-05-04T03:05:45.086Z,101476.75
2023-05-04T03:06:07.003Z,101475.84
2023-05-04T03:06:28.757Z,101477.11
2023-05-04T03:06:50.543Z,101475.53
2023-05-04T03:07:12.329Z,101475.41
2023-05-04T03:07:34.217Z,101477.23
2023-05-04T03:07:56.725Z,101473.27
2023-05-04T03:08:18.608Z,101479.50
2023-05-04T03:08:40.384Z,101476.48
2023-05-04T03:09:02.171Z,101477.47
2023-05-04T03:09:24.123Z,101477.75
2023-05-04T03:09:47.677Z,101475.78
2023-05-04T03:10:10.394Z,101477.32
2023-05-04T03:10:32.102Z,101476.75
2023-05-04T03:10:53.855Z,101477.05
2023-05-04T03:11:16.662Z,101473.31
2023-05-04T03:11:38.618Z,101477.72
2023-05-04T03:12:00.440Z,101478.15
2023-05-04T03:12:22.530Z,101478.60
2023-05-04T03:12:45.323Z,101479.60
2023-05-04T03:13:07.497Z,101479.40
2023-05-04T03:13:29.426Z,101479.49
2023-05-04T03:13:51.517Z,101483.48
2023-05-04T03:14:13.712Z,101483.83
2023-05-04T03:14:35.996Z,101484.48
2023-05-04T03:14:57.985Z,101485.89
2023-05-04T03:15:19.778Z,101487.83
2023-05-04T03:15:42.164Z,101487.05
2023-05-04T03:16:05.834Z,101489.55
2023-05-04T03:16:27.824Z,101488.48
2023-05-04T03:16:49.695Z,101489.13
2023-05-04T03:17:11.655Z,101489.45
2023-05-04T03:17:33.913Z,101495.41
2023-05-04T03:17:56.584Z,101493.79
2023-05-04T03:18:18.651Z,101496.23
2023-05-04T03:18:41.045Z,101497.62
2023-05-04T03:19:02.832Z,101497.42
2023-05-04T03:19:24.817Z,101497.04
2023-05-04T03:19:47.120Z,101497.38
2023-05-04T03:20:09.717Z,101498.41
2023-05-04T03:20:31.602Z,101500.86
2023-05-04T03:20:53.390Z,101499.25
2023-05-04T03:21:15.989Z,101499.09
2023-05-04T03:21:37.912Z,101503.80
2023-05-04T03:21:59.618Z,101502.40
2023-05-04T03:22:21.452Z,101501.33
2023-05-04T03:22:43.249Z,101500.73
2023-05-04T03:23:05.115Z,101502.52
2023-05-04T03:23:26.817Z,101502.71
2023-05-04T03:23:48.585Z,101500.06
2023-05-04T03:24:11.664Z,101501.29
2023-05-04T03:24:33.492Z,101497.74
2023-05-04T03:24:55.530Z,101498.41
2023-05-04T03:25:17.462Z,101493.95
2023-05-04T03:25:39.248Z,101493.90
2023-05-04T03:26:01.018Z,101490.75
2023-05-04T03:26:23.043Z,101492.05
2023-05-04T03:26:45.024Z,101485.52
2023-05-04T03:27:07.311Z,101484.96
2023-05-04T03:27:30.217Z,101483.12
2023-05-04T03:27:52.510Z,101483.41
2023-05-04T03:28:14.293Z,101478.77
2023-05-04T03:28:36.896Z,101476.77
2023-05-04T03:28:58.990Z,101471.59
2023-05-04T03:29:20.778Z,101469.61
2023-05-04T03:29:42.760Z,101469.03
2023-05-04T03:30:06.786Z,101464.61
2023-05-04T03:30:29.607Z,101465.31
2023-05-04T03:30:52.337Z,101465.69
2023-05-04T03:31:15.146Z,101460.83
2023-05-04T03:31:37.238Z,101462.13
2023-05-04T03:31:59.039Z,101458.64
2023-05-04T03:32:21.182Z,101457.97
2023-05-04T03:32:43.000Z,101458.20
2023-05-04T03:33:05.143Z,101457.56
2023-05-04T03:33:27.016Z,101457.96
2023-05-04T03:33:49.361Z,101452.54
2023-05-04T03:34:12.810Z,101453.33
2023-05-04T03:34:34.857Z,101453.38
2023-05-04T03:34:59.001Z,101451.66
2023-05-04T03:35:24.612Z,101450.63
2023-05-04T03:35:47.269Z,101450.34
2023-05-04T03:36:12.230Z,101448.58
2023-05-04T03:36:34.277Z,101450.06
2023-05-04T03:36:56.106Z,101451.65
2023-05-04T03:37:17.882Z,101449.20
2023-05-04T03:37:40.085Z,101452.41
2023-05-04T03:38:01.914Z,101449.13
2023-05-04T03:38:23.858Z,101450.05
2023-05-04T03:38:47.266Z,101449.92
2023-05-04T03:39:09.572Z,101448.92
2023-05-04T03:39:32.191Z,101448.05
2023-05-04T03:39:54.055Z,101449.65
2023-05-04T03:40:15.952Z,101448.10
2023-05-04T03:40:37.931Z,101450.45
2023-05-04T03:40:59.775Z,101447.43
2023-05-04T03:41:21.510Z,101446.59
2023-05-04T03:41:43.265Z,101446.64
2023-05-04T03:42:04.991Z,101448.47
2023-05-04T03:42:26.752Z,101446.42
2023-05-04T03:42:49.369Z,101446.14
2023-05-04T03:43:11.547Z,101447.21
2023-05-04T03:43:33.348Z,101448.03
2023-05-04T03:43:55.129Z,101446.83
2023-05-04T03:44:16.900Z,101446.97
2023-05-04T03:44:39.200Z,101448.96
2023-05-04T03:45:03.715Z,101446.54
2023-05-04T03:45:28.662Z,101446.30
2023-05-04T03:45:52.042Z,101448.49
2023-05-04T03:46:13.832Z,101446.06
2023-05-04T03:46:35.823Z,101447.02
2023-05-04T03:46:57.814Z,101450.80
2023-05-04T03:47:19.667Z,101448.23
2023-05-04T03:47:41.620Z,101447.77
2023-05-04T03:48:04.131Z,101448.73
2023-05-04T03:48:26.043Z,101450.39
2023-05-04T03:48:48.339Z,101451.00
2023-05-04T03:49:10.848Z,101454.60
2023-05-04T03:49:32.625Z,101453.77
2023-05-04T03:49:54.416Z,101454.25
2023-05-04T03:50:16.173Z,101453.33
2023-05-04T03:50:38.181Z,101455.25
2023-05-04T03:50:59.971Z,101456.96
2023-05-04T03:51:21.851Z,101456.35
2023-05-04T03:51:43.842Z,101456.84
2023-05-04T03:52:05.737Z,101453.08
2023-05-04T03:52:27.620Z,101454.25
2023-05-04T03:52:49.715Z,101455.79
2023-05-04T03:53:12.208Z,101455.94
2023-05-04T03:53:35.885Z,101457.20
2023-05-04T03:53:57.816Z,101456.66
2023-05-04T03:54:19.542Z,101455.98
2023-05-04T03:54:41.288Z,101454.82
2023-05-04T03:55:03.792Z,101452.13
2023-05-04T03:55:25.677Z,101451.15
2023-05-04T03:55:48.275Z,101449.84
2023-05-04T03:56:10.060Z,101450.47
2023-05-04T03:56:31.850Z,101452.25
2023-05-04T03:56:53.572Z,101445.59
2023-05-04T03:57:15.285Z,101451.94
2023-05-04T03:57:37.616Z,101447.37
2023-05-04T03:57:59.700Z,101451.07
2023-05-04T03:58:21.684Z,101445.66
2023-05-04T03:58:43.601Z,101446.89
2023-05-04T03:59:05.673Z,101450.02
2023-05-04T03:59:27.463Z,101446.61
2023-05-04T03:59:49.183Z,101447.42
2023-05-04T04:00:11.957Z,101450.77
2023-05-04T04:00:47.737Z,101447.98
2023-05-04T04:01:09.780Z,101449.19
2023-05-04T04:01:31.921Z,101450.23
2023-05-04T04:01:53.617Z,101446.84
2023-05-04T04:02:15.428Z,101450.33
2023-05-04T04:02:37.272Z,101450.27
2023-05-04T04:02:59.296Z,101449.91
2023-05-04T04:03:21.382Z,101450.75
2023-05-04T04:03:43.504Z,101453.75
2023-05-04T04:04:05.929Z,101451.09
2023-05-04T04:04:28.179Z,101452.69
2023-05-04T04:04:50.028Z,101454.77
2023-05-04T04:05:12.125Z,101454.09
2023-05-04T04:05:34.106Z,101452.65
2023-05-04T04:05:55.891Z,101453.94
2023-05-04T04:06:20.024Z,101454.61
2023-05-04T04:06:43.430Z,101452.83
2023-05-04T04:07:05.404Z,101453.35
2023-05-04T04:07:27.224Z,101453.12
2023-05-04T04:07:49.010Z,101455.29
2023-05-04T04:08:10.788Z,101455.23
2023-05-04T04:08:32.677Z,101453.07
2023-05-04T04:08:54.562Z,101453.77
2023-05-04T04:09:16.345Z,101454.45
2023-05-04T04:09:38.133Z,101451.39
2023-05-04T04:09:59.923Z,101453.31
2023-05-04T04:10:21.714Z,101455.23
2023-05-04T04:10:43.702Z,101452.58
2023-05-04T04:11:05.686Z,101456.25
2023-05-04T04:11:27.669Z,101451.95
2023-05-04T04:11:49.417Z,101453.39
2023-05-04T04:12:11.459Z,101453.15
2023-05-04T04:12:33.265Z,101455.05
2023-05-04T04:12:55.129Z,101452.37
2023-05-04T04:13:16.956Z,101453.77
2023-05-04T04:13:38.731Z,101452.15
2023-05-04T04:14:00.570Z,101456.14
2023-05-04T04:14:22.357Z,101454.18
2023-05-04T04:14:44.647Z,101454.18
2023-05-04T04:15:06.656Z,101452.71
2023-05-04T04:15:28.439Z,101453.94
2023-05-04T04:15:50.780Z,101456.93
2023-05-04T04:16:12.627Z,101456.54